createdAt,value
2023-04-16T00:00:19.027Z,100221.06
2023-04-16T00:03:21.927Z,100221.91
2023-04-16T00:06:24.818Z,100227.09
2023-04-16T00:09:29.028Z,100218.03
2023-04-16T00:12:31.783Z,100233.28
2023-04-16T00:15:34.624Z,100226.13
2023-04-16T00:18:37.342Z,100224.19
2023-04-16T00:21:40.218Z,100231.34
2023-04-16T00:24:44.395Z,100227.09
2023-04-16T00:27:47.185Z,100223.47
2023-04-16T00:30:50.015Z,100223.81
2023-04-16T00:33:52.815Z,100227.25
2023-04-16T00:36:55.866Z,100224.44
2023-04-16T00:40:00.005Z,100224.44
2023-04-16T00:43:02.732Z,100228.94
2023-04-16T00:46:06.856Z,100228.22
2023-04-16T00:49:09.911Z,100238.97
2023-04-16T00:52:13.097Z,100240.06
2023-04-16T00:55:19.107Z,100243.81
2023-04-16T00:58:22.038Z,100236.78
2023-04-16T01:01:24.821Z,100237.88
2023-04-16T01:04:27.636Z,100232.06
2023-04-16T01:07:30.709Z,100232.06
2023-04-16T01:10:34.842Z,100239.44
2023-04-16T01:13:39.472Z,100240.19
2023-04-16T01:16:42.525Z,100238.38
2023-04-16T01:19:45.330Z,100234.59
2023-04-16T01:22:50.034Z,100250.44
2023-04-16T01:25:52.820Z,100244.41
2023-04-16T01:28:55.583Z,100241.63
2023-04-16T01:31:58.413Z,100247.06
2023-04-16T01:35:01.179Z,100252.66
2023-04-16T01:38:06.886Z,100254.56
2023-04-16T01:41:09.728Z,100257.34
2023-04-16T01:44:12.474Z,100255.03
2023-04-16T01:47:15.525Z,100257.94
2023-04-16T01:50:20.700Z,100247.56
2023-04-16T01:53:24.877Z,100252.13
2023-04-16T01:56:27.716Z,100253.09
2023-04-16T01:59:30.899Z,100249.72
2023-04-16T02:02:33.755Z,100252.13
2023-04-16T02:05:36.746Z,100251.16
2023-04-16T02:08:42.358Z,100249.25
2023-04-16T02:11:47.267Z,100251.78
2023-04-16T02:14:50.055Z,100262.44
2023-04-16T02:17:56.727Z,100261.81
2023-04-16T02:21:00.590Z,100270.41
2023-04-16T02:24:04.862Z,100269.69
2023-04-16T02:27:07.657Z,100266.19
2023-04-16T02:30:11.040Z,100263.53
2023-04-16T02:33:13.994Z,100273.34
2023-04-16T02:36:16.790Z,100269.78
2023-04-16T02:39:20.946Z,100275.38
2023-04-16T02:42:24.745Z,100272.59
2023-04-16T02:45:27.570Z,100272.00
2023-04-16T02:48:30.399Z,100270.50
2023-04-16T02:51:33.348Z,100270.63
2023-04-16T02:54:40.429Z,100272.69
2023-04-16T02:57:43.509Z,100272.81
2023-04-16T03:00:46.395Z,100272.94
2023-04-16T03:03:49.189Z,100285.03
2023-04-16T03:06:51.916Z,100289.00
2023-04-16T03:09:56.085Z,100288.88
2023-04-16T03:12:59.020Z,100288.25
2023-04-16T03:16:01.984Z,100303.28
2023-04-16T03:19:04.903Z,100297.59
2023-04-16T03:22:07.770Z,100301.00
2023-04-16T03:25:13.162Z,100290.59
2023-04-16T03:28:16.260Z,100301.84
2023-04-16T03:31:19.055Z,100302.69
2023-04-16T03:34:21.934Z,100306.56
2023-04-16T03:37:24.706Z,100302.19
2023-04-16T03:40:28.844Z,100309.22
2023-04-16T03:43:31.606Z,100301.09
2023-04-16T03:46:34.453Z,100302.19
2023-04-16T03:49:38.292Z,100301.47
2023-04-16T03:52:41.088Z,100307.53
2023-04-16T03:55:45.215Z,100307.00
2023-04-16T03:58:47.992Z,100315.75
2023-04-16T04:01:50.966Z,100310.53
2023-04-16T04:04:53.809Z,100317.66
2023-04-16T04:07:56.666Z,100313.44
2023-04-16T04:11:00.855Z,100304.59
2023-04-16T04:14:05.290Z,100313.44
2023-04-16T04:17:08.157Z,100300.13
2023-04-16T04:20:12.631Z,100306.41
2023-04-16T04:23:15.697Z,100299.78
2023-04-16T04:26:19.917Z,100304.59
2023-04-16T04:29:22.712Z,100301.00
2023-04-16T04:32:25.760Z,100298.81
2023-04-16T04:35:28.609Z,100297.84
2023-04-16T04:38:31.574Z,100311.66
2023-04-16T04:41:36.263Z,100315.03
2023-04-16T04:44:39.141Z,100310.22
2023-04-16T04:47:41.904Z,100320.13
2023-04-16T04:50:46.157Z,100320.75
2023-04-16T04:53:48.917Z,100326.28
2023-04-16T04:56:53.559Z,100334.41
2023-04-16T04:59:56.549Z,100331.41
2023-04-16T05:02:59.372Z,100333.34
2023-04-16T05:06:02.221Z,100343.84
2023-04-16T05:09:05.128Z,100336.47
2023-04-16T05:12:09.533Z,100339.00
2023-04-16T05:15:13.260Z,100341.78
2023-04-16T05:18:16.019Z,100339.66
2023-04-16T05:21:18.707Z,100341.31
2023-04-16T05:24:21.505Z,100348.34
2023-04-16T05:27:25.695Z,100347.75
2023-04-16T05:30:28.456Z,100351.13
2023-04-16T05:33:31.188Z,100340.22
2023-04-16T05:36:33.969Z,100349.19
2023-04-16T05:39:36.714Z,100348.72
2023-04-16T05:42:41.031Z,100354.81
2023-04-16T05:45:43.873Z,100357.22
2023-04-16T05:48:46.596Z,100355.06
2023-04-16T05:51:50.862Z,100352.41
2023-04-16T05:54:53.876Z,100354.22
2023-04-16T05:57:58.111Z,100353.13
2023-04-16T06:01:01.273Z,100348.75
2023-04-16T06:04:04.197Z,100349.59
2023-04-16T06:07:07.146Z,100343.44
2023-04-16T06:10:10.373Z,100347.06
2023-04-16T06:13:14.474Z,100340.91
2023-04-16T06:16:17.291Z,100334.47
2023-04-16T06:19:20.149Z,100341.50
2023-04-16T06:22:22.951Z,100341.63
2023-04-16T06:25:25.805Z,100331.69
2023-04-16T06:28:29.996Z,100342.47
2023-04-16T06:31:32.871Z,100343.06
2023-04-16T06:34:35.776Z,100347.44
2023-04-16T06:37:38.551Z,100347.44
2023-04-16T06:40:41.455Z,100346.34
2023-04-16T06:43:45.711Z,100347.19
2023-04-16T06:46:48.556Z,100354.34
2023-04-16T06:49:51.498Z,100351.53
2023-04-16T06:52:54.262Z,100347.81
2023-04-16T06:55:57.140Z,100347.81
2023-04-16T06:59:01.323Z,100349.63
2023-04-16T07:02:04.248Z,100352.16
2023-04-16T07:05:07.423Z,100345.88
2023-04-16T07:08:10.670Z,100347.81
2023-04-16T07:11:13.539Z,100353.88
2023-04-16T07:14:17.717Z,100348.53
2023-04-16T07:17:20.469Z,100346.72
2023-04-16T07:20:23.254Z,100353.88
2023-04-16T07:23:26.103Z,100352.03
2023-04-16T07:26:28.887Z,100357.50
2023-04-16T07:29:33.084Z,100364.66
2023-04-16T07:32:36.016Z,100340.66
2023-04-16T07:35:38.872Z,100343.22
2023-04-16T07:38:41.632Z,100351.31
2023-04-16T07:41:44.585Z,100347.69
2023-04-16T07:44:48.724Z,100345.75
2023-04-16T07:47:51.583Z,100347.44
2023-04-16T07:50:55.732Z,100346.38
2023-04-16T07:53:58.533Z,100342.72
2023-04-16T07:57:01.299Z,100343.56
2023-04-16T08:00:06.147Z,100339.09
2023-04-16T08:03:09.084Z,100337.41
2023-04-16T08:06:11.938Z,100332.94
2023-04-16T08:09:14.765Z,100335.47
2023-04-16T08:12:17.903Z,100333.50
2023-04-16T08:15:22.048Z,100337.16
2023-04-16T08:18:24.929Z,100333.50
2023-04-16T08:21:29.453Z,100332.53
2023-04-16T08:24:32.359Z,100339.59
2023-04-16T08:27:35.397Z,100336.84
2023-04-16T08:30:39.585Z,100338.84
2023-04-16T08:33:42.356Z,100337.16
2023-04-16T08:36:46.105Z,100333.50
2023-04-16T08:39:48.844Z,100342.34
2023-04-16T08:42:54.505Z,100336.19
2023-04-16T08:45:59.303Z,100332.53
2023-04-16T08:49:02.747Z,100325.44
2023-04-16T08:52:07.308Z,100330.75
2023-04-16T08:55:14.084Z,100323.38
2023-04-16T08:58:19.744Z,100332.44
2023-04-16T09:01:23.996Z,100326.06
2023-04-16T09:04:28.013Z,100327.53
2023-04-16T09:07:30.960Z,100331.13
2023-04-16T09:10:34.074Z,100320.25
2023-04-16T09:13:38.420Z,100332.34
2023-04-16T09:16:43.229Z,100334.66
2023-04-16T09:19:46.471Z,100329.34
2023-04-16T09:22:49.362Z,100324.72
2023-04-16T09:25:52.218Z,100321.81
2023-04-16T09:28:55.047Z,100324.97
2023-04-16T09:32:04.509Z,100311.28
2023-04-16T09:35:07.506Z,100324.38
2023-04-16T09:38:10.326Z,100319.13
2023-04-16T09:41:13.176Z,100323.50
2023-04-16T09:44:15.910Z,100327.88
2023-04-16T09:47:20.200Z,100319.88
2023-04-16T09:50:23.002Z,100318.06
2023-04-16T09:53:26.537Z,100316.38
2023-04-16T09:56:30.513Z,100325.09
2023-04-16T09:59:34.326Z,100319.88
2023-04-16T10:02:42.057Z,100322.78
2023-04-16T10:05:45.301Z,100329.56
2023-04-16T10:08:49.898Z,100328.47
2023-04-16T10:11:53.269Z,100325.31
2023-04-16T10:14:56.082Z,100325.81
2023-04-16T10:18:00.553Z,100321.81
2023-04-16T10:21:03.830Z,100317.22
2023-04-16T10:24:06.983Z,100310.06
2023-04-16T10:27:09.790Z,100318.78
2023-04-16T10:30:14.017Z,100317.59
2023-04-16T10:33:18.463Z,100319.03
2023-04-16T10:36:24.657Z,100307.16
2023-04-16T10:39:28.882Z,100316.72
2023-04-16T10:42:32.619Z,100310.44
2023-04-16T10:45:38.579Z,100311.63
2023-04-16T10:48:49.649Z,100314.03
2023-04-16T10:51:56.922Z,100308.97
2023-04-16T10:55:00.371Z,100306.91
2023-04-16T10:58:03.174Z,100310.88
2023-04-16T11:01:08.211Z,100305.69
2023-04-16T11:04:34.463Z,100303.03
2023-04-16T11:07:39.351Z,100295.03
2023-04-16T11:10:42.211Z,100287.03
2023-04-16T11:13:45.884Z,100289.81
2023-04-16T11:16:48.694Z,100303.16
2023-04-16T11:19:53.506Z,100292.84
2023-04-16T11:22:57.664Z,100293.34
2023-04-16T11:26:00.996Z,100277.56
2023-04-16T11:29:14.586Z,100278.41
2023-04-16T11:32:22.783Z,100277.06
2023-04-16T11:35:27.400Z,100270.91
2023-04-16T11:38:37.248Z,100261.31
2023-04-16T11:41:43.642Z,100261.44
2023-04-16T11:44:46.392Z,100257.66
2023-04-16T11:47:51.959Z,100257.56
2023-04-16T11:50:59.584Z,100256.72
2023-04-16T11:54:03.300Z,100265.91
2023-04-16T11:57:06.269Z,100252.47
2023-04-16T12:00:11.094Z,100256.59
2023-04-16T12:03:15.134Z,100247.47
2023-04-16T12:06:19.328Z,100252.09
2023-04-16T12:09:25.324Z,100253.06
2023-04-16T12:12:31.073Z,100245.75
2023-04-16T12:15:44.542Z,100242.00
2023-04-16T12:19:04.033Z,100243.69
2023-04-16T12:22:08.192Z,100241.91
2023-04-16T12:25:12.661Z,100233.94
2023-04-16T12:28:16.644Z,100236.19
2023-04-16T12:31:20.478Z,100227.69
2023-04-16T12:34:28.937Z,100234.13
2023-04-16T12:37:48.478Z,100233.16
2023-04-16T12:40:51.193Z,100228.94
2023-04-16T12:43:54.508Z,100225.53
2023-04-16T12:46:57.264Z,100219.56
2023-04-16T12:50:00.449Z,100218.72
2023-04-16T12:53:04.747Z,100220.53
2023-04-16T12:56:07.678Z,100220.66
2023-04-16T12:59:10.937Z,100224.31
2023-04-16T13:02:13.971Z,100211.50
2023-04-16T13:05:19.290Z,100220.31
2023-04-16T13:08:23.687Z,100213.53
2023-04-16T13:11:26.603Z,100216.81
2023-04-16T13:14:29.320Z,100217.44
2023-04-16T13:17:32.198Z,100214.22
2023-04-16T13:20:35.131Z,100213.81
2023-04-16T13:23:39.290Z,100221.31
2023-04-16T13:26:43.051Z,100211.75
2023-04-16T13:29:45.862Z,100213.09
2023-04-16T13:32:48.616Z,100208.75
2023-04-16T13:35:51.462Z,100200.75
2023-04-16T13:38:55.672Z,100205.59
2023-04-16T13:41:58.420Z,100205.09
2023-04-16T13:45:03.428Z,100198.91
2023-04-16T13:48:06.504Z,100202.91
2023-04-16T13:51:09.446Z,100210.50
2023-04-16T13:54:13.626Z,100211.75
2023-04-16T13:57:16.460Z,100209.94
2023-04-16T14:00:19.729Z,100211.50
2023-04-16T14:03:22.658Z,100210.75
2023-04-16T14:06:26.076Z,100210.00
2023-04-16T14:09:30.864Z,100202.41
2023-04-16T14:12:33.678Z,100200.94
2023-04-16T14:15:36.450Z,100199.75
2023-04-16T14:18:42.419Z,100204.56
2023-04-16T14:21:45.310Z,100207.94
2023-04-16T14:24:49.476Z,100199.47
2023-04-16T14:27:52.402Z,100191.84
2023-04-16T14:30:55.373Z,100196.09
2023-04-16T14:33:58.158Z,100197.09
2023-04-16T14:37:01.095Z,100193.31
2023-04-16T14:40:08.582Z,100205.66
2023-04-16T14:43:11.455Z,100198.50
2023-04-16T14:46:17.861Z,100187.97
2023-04-16T14:49:20.831Z,100192.47
2023-04-16T14:52:23.636Z,100194.75
2023-04-16T14:55:27.782Z,100189.19
2023-04-16T14:58:30.512Z,100193.66
2023-04-16T15:01:34.742Z,100200.16
2023-04-16T15:04:37.746Z,100193.50
2023-04-16T15:07:40.807Z,100192.19
2023-04-16T15:10:45.846Z,100191.09
2023-04-16T15:13:48.659Z,100196.31
2023-04-16T15:16:51.732Z,100188.56
2023-04-16T15:19:54.588Z,100192.94
2023-04-16T15:22:57.385Z,100195.34
2023-04-16T15:26:01.556Z,100193.50
2023-04-16T15:29:04.383Z,100190.59
2023-04-16T15:32:07.485Z,100191.69
2023-04-16T15:35:11.452Z,100192.66
2023-04-16T15:38:14.447Z,100190.84
2023-04-16T15:41:18.607Z,100192.53
2023-04-16T15:44:21.480Z,100191.94
2023-04-16T15:47:24.298Z,100194.63
2023-04-16T15:50:27.666Z,100191.25
2023-04-16T15:53:30.686Z,100192.47
2023-04-16T15:56:34.894Z,100189.09
2023-04-16T15:59:37.609Z,100200.59
2023-04-16T16:02:40.803Z,100194.41
2023-04-16T16:05:43.724Z,100198.06
2023-04-16T16:08:46.539Z,100196.81
2023-04-16T16:11:50.737Z,100195.41
2023-04-16T16:14:53.477Z,100195.50
2023-04-16T16:17:57.973Z,100193.56
2023-04-16T16:21:01.665Z,100209.66
2023-04-16T16:24:04.593Z,100207.13
2023-04-16T16:27:08.812Z,100210.66
2023-04-16T16:30:12.070Z,100212.59
2023-04-16T16:33:15.876Z,100209.31
2023-04-16T16:36:18.627Z,100214.44
2023-04-16T16:39:24.542Z,100216.38
2023-04-16T16:42:29.669Z,100205.09
2023-04-16T16:45:32.474Z,100210.16
2023-04-16T16:48:35.194Z,100217.72
2023-04-16T16:51:38.881Z,100211.66
2023-04-16T16:54:42.754Z,100219.06
2023-04-16T16:57:46.883Z,100227.91
2023-04-16T17:00:49.677Z,100215.69
2023-04-16T17:03:52.628Z,100228.88
2023-04-16T17:06:55.912Z,100225.59
2023-04-16T17:10:01.997Z,100230.22
2023-04-16T17:13:07.255Z,100232.75
2023-04-16T17:16:10.479Z,100241.84
2023-04-16T17:19:15.435Z,100230.34
2023-04-16T17:22:18.404Z,100231.19
2023-04-16T17:25:21.284Z,100237.09
2023-04-16T17:28:26.079Z,100228.16
2023-04-16T17:31:28.905Z,100234.72
2023-04-16T17:34:31.684Z,100238.09
2023-04-16T17:37:34.435Z,100236.03
2023-04-16T17:40:38.222Z,100236.25
2023-04-16T17:43:44.991Z,100237.00
2023-04-16T17:46:47.840Z,100245.25
2023-04-16T17:49:53.806Z,100241.50
2023-04-16T17:52:58.138Z,100239.53
2023-04-16T17:56:00.915Z,100250.56
2023-04-16T17:59:05.023Z,100245.25
2023-04-16T18:02:08.670Z,100248.16
2023-04-16T18:05:11.717Z,100243.06
2023-04-16T18:08:15.604Z,100247.19
2023-04-16T18:11:18.629Z,100245.09
2023-04-16T18:14:23.794Z,100246.09
2023-04-16T18:17:26.596Z,100255.06
2023-04-16T18:20:29.426Z,100249.59
2023-04-16T18:23:32.233Z,100253.50
2023-04-16T18:26:36.209Z,100250.56
2023-04-16T18:29:40.727Z,100256.66
2023-04-16T18:33:04.232Z,100249.72
2023-04-16T18:36:06.807Z,100253.09
2023-04-16T18:39:09.613Z,100251.19
2023-04-16T18:42:12.450Z,100249.72
2023-04-16T18:45:21.648Z,100248.66
2023-04-16T18:48:24.972Z,100251.41
2023-04-16T18:51:27.778Z,100259.41
2023-04-16T18:54:30.663Z,100259.53
2023-04-16T18:57:33.397Z,100256.38
2023-04-16T19:00:37.795Z,100255.19
2023-04-16T19:03:41.050Z,100255.31
2023-04-16T19:06:43.967Z,100250.69
2023-04-16T19:09:46.690Z,100251.19
2023-04-16T19:12:49.485Z,100249.13
2023-04-16T19:15:58.225Z,100256.88
2023-04-16T19:19:01.012Z,100249.50
2023-04-16T19:22:03.891Z,100257.50
2023-04-16T19:25:07.314Z,100259.44
2023-04-16T19:28:10.102Z,100254.56
2023-04-16T19:31:14.280Z,100257.97
2023-04-16T19:34:17.091Z,100259.31
2023-04-16T19:37:19.830Z,100260.41
2023-04-16T19:40:22.723Z,100262.81
2023-04-16T19:43:25.550Z,100250.25
2023-04-16T19:46:29.790Z,100265.25
2023-04-16T19:49:34.250Z,100256.78
2023-04-16T19:52:39.188Z,100257.41
2023-04-16T19:55:42.231Z,100259.94
2023-04-16T19:58:45.033Z,100248.53
2023-04-16T20:01:49.262Z,100258.06
2023-04-16T20:04:53.198Z,100259.13
2023-04-16T20:07:57.433Z,100261.94
2023-04-16T20:11:00.275Z,100259.41
2023-04-16T20:14:03.438Z,100253.22
2023-04-16T20:17:10.195Z,100263.75
2023-04-16T20:20:15.806Z,100264.72
2023-04-16T20:23:18.786Z,100258.16
2023-04-16T20:26:24.057Z,100263.88
2023-04-16T20:29:27.111Z,100268.50
2023-04-16T20:32:31.312Z,100272.00
2023-04-16T20:35:34.369Z,100259.63
2023-04-16T20:38:37.711Z,100269.56
2023-04-16T20:41:44.137Z,100264.97
2023-04-16T20:44:50.696Z,100267.75
2023-04-16T20:47:54.819Z,100266.91
2023-04-16T20:50:59.654Z,100264.00
2023-04-16T20:54:02.972Z,100265.94
2023-04-16T20:57:05.921Z,100281.69
2023-04-16T21:00:12.173Z,100273.69
2023-04-16T21:03:16.711Z,100272.97
2023-04-16T21:06:22.667Z,100274.41
2023-04-16T21:09:25.445Z,100265.69
2023-04-16T21:12:28.273Z,100277.06
2023-04-16T21:15:31.949Z,100267.25
2023-04-16T21:18:36.766Z,100267.38
2023-04-16T21:21:39.724Z,100269.22
2023-04-16T21:24:42.448Z,100272.00
2023-04-16T21:27:45.267Z,100265.56
2023-04-16T21:30:51.815Z,100262.06
2023-04-16T21:33:56.035Z,100259.41
2023-04-16T21:36:59.359Z,100260.38
2023-04-16T21:40:02.157Z,100258.91
2023-04-16T21:43:04.888Z,100269.44
2023-04-16T21:46:07.736Z,100262.69
2023-04-16T21:49:11.983Z,100263.53
2023-04-16T21:52:18.342Z,100268.00
2023-04-16T21:55:21.412Z,100275.88
2023-04-16T21:58:25.748Z,100269.44
2023-04-16T22:01:28.639Z,100275.63
2023-04-16T22:04:39.024Z,100280.00
2023-04-16T22:07:42.025Z,100276.59
2023-04-16T22:10:44.855Z,100284.50
2023-04-16T22:13:47.882Z,100281.22
2023-04-16T22:16:52.316Z,100283.88
2023-04-16T22:19:57.345Z,100269.00
2023-04-16T22:23:00.089Z,100273.94
2023-04-16T22:26:03.129Z,100269.34
2023-04-16T22:29:05.985Z,100266.06
2023-04-16T22:32:08.811Z,100266.91
2023-04-16T22:35:13.034Z,100271.25
2023-04-16T22:38:16.564Z,100267.88
2023-04-16T22:41:19.364Z,100262.44
2023-04-16T22:44:22.180Z,100265.22
2023-04-16T22:47:25.040Z,100263.53
2023-04-16T22:50:31.485Z,100261.09
2023-04-16T22:53:34.596Z,100261.00
2023-04-16T22:56:37.360Z,100256.13
2023-04-16T22:59:40.115Z,100259.25
2023-04-16T23:02:43.164Z,100264.00
2023-04-16T23:05:47.474Z,100258.19
2023-04-16T23:08:50.363Z,100263.28
2023-04-16T23:11:53.298Z,100259.31
2023-04-16T23:14:56.471Z,100260.38
2023-04-16T23:17:59.331Z,100258.94
2023-04-16T23:21:03.567Z,100253.09
2023-04-16T23:24:06.510Z,100256.50
2023-04-16T23:27:09.276Z,100253.97
2023-04-16T23:30:12.426Z,100255.75
2023-04-16T23:33:15.252Z,100251.19
2023-04-16T23:36:19.420Z,100249.59
2023-04-16T23:39:22.120Z,100250.69
2023-04-16T23:42:24.949Z,100252.25
2023-04-16T23:45:27.814Z,100246.09
2023-04-16T23:48:30.629Z,100241.84
2023-04-16T23:51:34.737Z,100236.75
2023-04-16T23:54:37.550Z,100243.81
2023-04-16T23:57:40.409Z,100248.88
